Nearby METAR Reports

Sorted by Distance from Carson Valley Weather Station - Minden, Nevada

 

KMEV - Minden, Nevada, USA
Distance from station: SSW 3mi, 5km
Updated: Sun, 25-Jul-2021 5:15am PDT
Overcast
Overcast
 Wind from calm
Wind: Calm
Temperature: 55°F , 13°C
Dew Point: 45°F , 7°C
Humidity: 67%
Barometer: 30.13 inHg , 1020.3 hPa
Clouds: Overcast
Visibility: 10 miles , 16 km
Cloud details: Overcast 4900 ft
2021/07/25 12:15 KMEV 251215Z AUTO 00000KT 10SM OVC049 13/07 A3013 RMK AO2
KCXP - Carson City, Nevada, USA
Distance from station: N 10mi, 16km
Updated: Sun, 25-Jul-2021 5:15am PDT
Overcast
Overcast
 Wind from calm
Wind: Calm
Temperature: 64°F , 18°C
Dew Point: 41°F , 5°C
Humidity: 43%
Barometer: 30.14 inHg , 1020.7 hPa
Clouds: Overcast
Visibility: 10 miles , 16 km
Cloud details: Overcast 3000 ft
2021/07/25 12:15 KCXP 251215Z AUTO 00000KT 10SM OVC030 18/05 A3014 RMK AO2
 
KTVL - South Lake Tahoe, California, USA
Distance from station: WSW 18mi, 29km
Updated: Sun, 25-Jul-2021 4:53am PDT
Clear
Clear
 Wind from S
Wind: S 5 mph , 7 km/h
Temperature: 52°F , 11°C
Dew Point: 39°F , 4°C
Humidity: 62%
Barometer: 30.25 inHg , 1024.4 hPa
Clouds: Clear
Visibility: 10 miles , 16 km
2021/07/25 11:53 KTVL 251153Z AUTO 19004KT 10SM CLR 11/04 A3025 RMK AO2 SLP175 T01060044 10178 20106 56002
KTRK - Truckee Tahoe, California, USA
Distance from station: NW 29mi, 46km
Updated: Sun, 25-Jul-2021 5:15am PDT
Overcast
Overcast
 Wind from calm
Wind: Calm
Temperature: 48°F , 9°C
Dew Point: 37°F , 3°C
Humidity: 66%
Barometer: 30.26 inHg , 1024.7 hPa
Clouds: Overcast
Visibility: 10 miles , 16 km
Cloud details: Overcast 2600 ft
2021/07/25 12:15 KTRK 251215Z AUTO 00000KT 10SM OVC026 09/03 A3026 RMK AO2
 
KRNO - Reno, Nevada, USA
Distance from station: N 32mi, 51km
Updated: Sun, 25-Jul-2021 4:55am PDT
Haze, Smoke, Mostly cloudy
Haze, Smoke, Mostly cloudy
 Wind from S
Wind: S 5 mph , 7 km/h
Temperature: 70°F , 21°C
Dew Point: 45°F , 7°C
Humidity: 40%
Barometer: 30.11 inHg , 1019.6 hPa
Summary: Haze, Smoke
Clouds: Mostly cloudy
Visibility: 5 miles , 8 km
Cloud details: Mostly cloudy 3200 ft
2021/07/25 11:55 KRNO 251155Z 19004KT 5SM HZ FU BKN032 21/07 A3011 RMK AO2 SLP128 FU BKN032 T02060067 10283 20206 53004
KRTS - Reno/Stead, Nevada, USA
Distance from station: NNW 44mi, 71km
Updated: Sun, 25-Jul-2021 5:15am PDT
Haze, Overcast
Haze, Overcast
 Wind from N
Wind: N 6 mph , 9 km/h
Temperature: 64°F , 18°C
Dew Point: 36°F , 2°C
Humidity: 34%
Barometer: 30.16 inHg , 1021.3 hPa
Summary: Haze
Clouds: Overcast
Visibility: 2 miles , 3 km
Cloud details: Overcast 1800 ft
2021/07/25 12:15 KRTS 251215Z AUTO 35005KT 2SM HZ OVC018 18/02 A3016 RMK AO2
 
KBAN - Bridgeport(Mcmwt, California, USA
Distance from station: SSE 49mi, 79km
Updated: Sun, 25-Jul-2021 4:52am PDT
Clear
Clear
 Wind from calm
Wind: Calm
Temperature: 54°F , 12°C
Dew Point: 39°F , 4°C
Humidity: 58%
Barometer: 30.27 inHg , 1025.1 hPa
Clouds: Clear
Visibility: 8 miles , 13 km
2021/07/25 11:52 KBAN 251152Z AUTO 00000KT 8SM CLR 12/04 A3027 RMK AO2 SLP141 T01170044 10189 20117 58000 $
KBLU - Emigrant Gap, California, USA
Distance from station: WNW 55mi, 89km
Updated: Sun, 25-Jul-2021 4:52am PDT
Mostly cloudy
Mostly cloudy
 Wind from NNE
Wind: NNE 5 mph , 7 km/h
Temperature: 72°F , 22°C
Dew Point: 28°F , -2°C
Humidity: 20%
Barometer: 30.20 inHg , 1022.7 hPa
Clouds: Mostly cloudy
Visibility: 10 miles , 16 km
Cloud details: Mostly cloudy 3300 ft
2021/07/25 11:52 KBLU 251152Z AUTO 02004KT 10SM BKN033 22/M02 A3020 RMK AO2 SLP106 T02171022 10222 20206 56004 $
 
KPVF - Placerville, California, USA
Distance from station: WSW 60mi, 96km
Updated: Sun, 25-Jul-2021 5:15am PDT
Overcast
Overcast
 Wind from E
Wind: E 10 mph , 17 km/h
Temperature: 77°F , 25°C
Dew Point: 37°F , 3°C
Humidity: 24%
Barometer: 30.01 inHg , 1016.3 hPa
Clouds: Overcast
Visibility: 10 miles , 16 km
Cloud details: Overcast 4900 ft
2021/07/25 12:15 KPVF 251215Z AUTO 08009KT 10SM OVC049 25/03 A3001 RMK AO1
KNFL - Fallon Nas, Nevada, USA
Distance from station: ENE 61mi, 97km
Updated: Sun, 25-Jul-2021 4:56am PDT
Haze, Overcast
Haze, Overcast
 Wind from WSW
Wind: WSW 3 mph , 6 km/h
Temperature: 72°F , 22°C
Dew Point: 41°F , 5°C
Humidity: 33%
Barometer: 30.01 inHg , 1016.3 hPa
Summary: Haze
Clouds: Overcast
Visibility: 1 3/4 miles , 2.8 km
Cloud details: Overcast 1900 ft
2021/07/25 11:56 KNFL 251156Z AUTO 24003KT 1 3/4SM HZ OVC019 22/05 A3001 RMK AO2 SLP133 T02170050 10272 20206 52002
 
KHTH - Hawthorne, Nevada, USA
Distance from station: ESE 68mi, 109km
Updated: Sun, 25-Jul-2021 5:15am PDT
Few Clouds
Few Clouds
 Wind from calm
Wind: Calm
Temperature: 73°F , 23°C
Dew Point: 45°F , 7°C
Humidity: 36%
Barometer: 30.06 inHg , 1017.9 hPa
Clouds: Few Clouds
Visibility: 10 miles , 16 km
Cloud details: Few Clouds 5000 ft
2021/07/25 12:15 KHTH 251215Z AUTO 00000KT 10SM FEW050 23/07 A3006 RMK A01
KGOO - Grass Valley, California, USA
Distance from station: W 70mi, 112km
Updated: Sun, 25-Jul-2021 5:10am PDT
Overcast
Overcast
 Wind from calm
Wind: Calm
Temperature: 77°F , 25°C
Dew Point: 39°F , 4°C
Humidity: 26%
Barometer: 30.03 inHg , 1016.9 hPa
Clouds: Overcast
Visibility: 10 miles , 16 km
Cloud details: Overcast 4700 ft
2021/07/25 12:10 KGOO 251210Z AUTO 00000KT 10SM OVC047 25/04 A3003 RMK A01
 
KAUN - Auburn Muni, California, USA
Distance from station: W 73mi, 118km
Updated: Sun, 25-Jul-2021 5:15am PDT
Clear
Clear
 Wind from E
Wind: E 8 mph , 13 km/h
Temperature: 77°F , 25°C
Dew Point: 41°F , 5°C
Humidity: 28%
Barometer: 29.93 inHg , 1013.5 hPa
Clouds: Clear
Visibility: 10 miles , 16 km
2021/07/25 12:15 KAUN 251215Z AUTO 09007KT 10SM CLR 25/05 A2993 RMK A01
KO22 - Columbia, California, USA
Distance from station: SSW 79mi, 127km
Updated: Sun, 25-Jul-2021 5:35am PDT
Few Clouds
Few Clouds
 Wind from calm
Wind: Calm
Temperature: 68°F , 20°C
Dew Point: 43°F , 6°C
Humidity: 40%
Barometer: 29.95 inHg , 1014.2 hPa
Clouds: Few Clouds
Visibility: 10 miles , 16 km
Cloud details: Few Clouds 4800 ft
2021/07/25 12:35 KO22 251235Z AUTO 00000KT 10SM FEW048 20/06 A2995 RMK A01
 
KLHM - Lincoln, California, USA
Distance from station: W 88mi, 141km
Updated: Sun, 25-Jul-2021 5:15am PDT
Clear
Clear
 Wind from S
Wind: S 5 mph , 7 km/h
Temperature: 68°F , 20°C
Dew Point: 46°F , 8°C
Humidity: 46%
Barometer: 29.87 inHg , 1011.5 hPa
Clouds: Clear
Visibility: 10 miles , 16 km
2021/07/25 12:15 KLHM 251215Z AUTO 17004KT 10SM CLR 20/08 A2987 RMK AO1
KBAB - Beale Afb/Marysv, California, USA
Distance from station: W 91mi, 147km
Updated: Sun, 25-Jul-2021 4:56am PDT
Clear
Clear
 Wind from S
Wind: S 3 mph , 6 km/h
Temperature: 66°F , 19°C
Dew Point: 50°F , 10°C
Humidity: 56%
Barometer: 29.86 inHg , 1011.2 hPa
Clouds: Clear
Visibility: 10 miles , 16 km
2021/07/25 11:56 KBAB 251156Z AUTO 18003KT 10SM CLR 19/10 A2986 RMK AO2 SLP114 T01910096 10281 20191 53006 $
 
KMHR - Mather Field, California, USA
Distance from station: WSW 91mi, 147km
Updated: Sun, 25-Jul-2021 4:47am PDT
Clear
Clear
 Wind from SE
Wind: SE 7 mph , 11 km/h
Temperature: 63°F , 17°C
Dew Point: 48°F , 9°C
Humidity: 59%
Barometer: 29.87 inHg , 1011.5 hPa
Clouds: Clear
Visibility: 10 miles , 16 km
2021/07/25 11:47 KMHR 251147Z 14006KT 10SM SKC 17/09 A2987
KLOL - Lovelock, Nevada, USA
Distance from station: NE 94mi, 151km
Updated: Sun, 25-Jul-2021 4:53am PDT
Clear
Clear
 Wind from calm
Wind: Calm
Temperature: 64°F , 18°C
Dew Point: 37°F , 3°C
Humidity: 37%
Barometer: 30.02 inHg , 1016.6 hPa
Clouds: Clear
Visibility: 10 miles , 16 km
2021/07/25 11:53 KLOL 251153Z AUTO 00000KT 10SM CLR 18/03 A3002 RMK AO2 SLP117 T01780033 10289 20172 53008
 
KMCC - Mcclellan Afb, California, USA
Distance from station: WSW 94mi, 151km
Updated: Sun, 25-Jul-2021 5:15am PDT
Mostly cloudy
Mostly cloudy
 Wind from SSE
Wind: SSE 10 mph , 17 km/h
Temperature: 66°F , 19°C
Dew Point: 50°F , 10°C
Humidity: 56%
Barometer: 29.88 inHg , 1011.9 hPa
Clouds: Mostly cloudy
Visibility: 10 miles , 16 km
Cloud details: Mostly cloudy 7500 ft
2021/07/25 12:15 KMCC 251215Z AUTO 16009KT 10SM BKN075 19/10 A2988 RMK AO2
KMYV - Marysville, California, USA
Distance from station: W 99mi, 159km
Updated: Sun, 25-Jul-2021 4:53am PDT
Clear
Clear
 Wind from SSE
Wind: SSE 5 mph , 7 km/h
Temperature: 68°F , 20°C
Dew Point: 46°F , 8°C
Humidity: 46%
Barometer: 29.87 inHg , 1011.5 hPa
Clouds: Clear
Visibility: 10 miles , 16 km
2021/07/25 11:53 KMYV 251153Z AUTO 16004KT 10SM CLR 20/08 A2987 RMK AO2 SLP117 T02000083 10272 20200 53007
 
KSVE - Susanville Muni, California, USA
Distance from station: NNW 102mi, 164km
Updated: Sun, 25-Jul-2021 5:15am PDT
Haze, Clear
Haze, Clear
 Wind from W
Wind: W 3 mph , 6 km/h
Temperature: 66°F , 19°C
Dew Point: 37°F , 3°C
Humidity: 35%
Barometer: 30.09 inHg , 1019 hPa
Summary: Haze
Clouds: Clear
Visibility: 5 miles , 8 km
2021/07/25 12:15 KSVE 251215Z AUTO 27003KT 5SM HZ CLR 19/03 A3009 RMK AO2
KSAC - Sacramento, California, USA
Distance from station: WSW 103mi, 165km
Updated: Sun, 25-Jul-2021 4:53am PDT
Clear
Clear
 Wind from S
Wind: S 9 mph , 15 km/h
Temperature: 61°F , 16°C
Dew Point: 52°F , 11°C
Humidity: 72%
Barometer: 29.88 inHg , 1011.9 hPa
Clouds: Clear
Visibility: 10 miles , 16 km
2021/07/25 11:53 KSAC 251153Z AUTO 18008KT 10SM CLR 16/11 A2988 RMK AO2 SLP117 T01610111 10217 20161 53005
 
KSMF - Sacramento/Metro, California, USA
Distance from station: WSW 104mi, 167km
Updated: Sun, 25-Jul-2021 4:53am PDT
Few Clouds
Few Clouds
 Wind from S
Wind: S 9 mph , 15 km/h
Temperature: 63°F , 17°C
Dew Point: 52°F , 11°C
Humidity: 68%
Barometer: 29.86 inHg , 1011.2 hPa
Clouds: Few Clouds
Visibility: 10 miles , 16 km
Cloud details: Few Clouds 18000 ft
2021/07/25 11:53 KSMF 251153Z 18008KT 10SM FEW180 17/11 A2986 RMK AO2 SLP110 T01720106 10239 20172 53004 $
KOVE - Oroville, California, USA
Distance from station: WNW 106mi, 171km
Updated: Sun, 25-Jul-2021 4:53am PDT
Clear
Clear
 Wind from E
Wind: E 5 mph , 7 km/h
Temperature: 73°F , 23°C
Dew Point: 48°F , 9°C
Humidity: 41%
Barometer: 29.88 inHg , 1011.9 hPa
Clouds: Clear
Visibility: 10 miles , 16 km
2021/07/25 11:53 KOVE 251153Z AUTO 10004KT 10SM CLR 23/09 A2988 RMK AO2 SLP118 T02330094 10300 20233 53007
 
KMMH - Mammoth/June Lak, California, USA
Distance from station: SSE 110mi, 177km
Updated: Sun, 25-Jul-2021 5:16am PDT
Clear
Clear
 Wind from calm
Wind: Calm
Temperature: 55°F , 13°C
Dew Point: 43°F , 6°C
Humidity: 63%
Barometer: 30.31 inHg , 1026.4 hPa
Clouds: Clear
Visibility: 10 miles , 16 km
2021/07/25 12:16 KMMH 251216Z AUTO 00000KT 10SM CLR 13/06 A3031 RMK AO2
KSCK - Stockton, California, USA
Distance from station: SW 114mi, 183km
Updated: Sun, 25-Jul-2021 4:55am PDT
Clear
Clear
 Wind from N
Wind: N 5 mph , 7 km/h
Temperature: 63°F , 17°C
Dew Point: 52°F , 11°C
Humidity: 68%
Barometer: 29.88 inHg , 1011.9 hPa
Clouds: Clear
Visibility: 10 miles , 16 km
2021/07/25 11:55 KSCK 251155Z AUTO 36004KT 10SM CLR 17/11 A2988 RMK AO2 SLP119 T01720106 10233 20172 52006
 
KEDU - Davis, California, USA
Distance from station: WSW 116mi, 187km
Updated: Wed, 23-Jun-2021 6:45am PDT
NOT Current
Clear
Clear
 Wind from calm
Wind: Calm
Temperature: 59°F , 15°C
Dew Point: 52°F , 11°C
Humidity: 77%
Barometer: 29.87 inHg , 1011.5 hPa
Clouds: Clear
Visibility: 10 miles , 16 km
2021/06/23 13:45 KEDU 231345Z AUTO 00000KT 10SM CLR 15/11 A2987 RMK AO1
KMOD - Modesto, California, USA
Distance from station: SW 119mi, 191km
Updated: Sun, 25-Jul-2021 4:53am PDT
Clear
Clear
 Wind from N
Wind: N 7 mph , 11 km/h
Temperature: 70°F , 21°C
Dew Point: 43°F , 6°C
Humidity: 38%
Barometer: 29.86 inHg , 1011.2 hPa
Clouds: Clear
Visibility: 10 miles , 16 km
2021/07/25 11:53 KMOD 251153Z AUTO 35006KT 10SM CLR 21/06 A2986 RMK AO2 SLP111 T02110061 10272 20211 50002
 
KMER - Merced/Castle Af, California, USA
Distance from station: SSW 123mi, 198km
Updated: Sun, 25-Jul-2021 5:15am PDT
Clear
Clear
 Wind from NW
Wind: NW 7 mph , 11 km/h
Temperature: 72°F , 22°C
Dew Point: 45°F , 7°C
Humidity: 38%
Barometer: 29.87 inHg , 1011.5 hPa
Clouds: Clear
Visibility: 10 miles , 16 km
2021/07/25 12:15 KMER 251215Z AUTO 32006KT 10SM CLR 22/07 A2987 RMK AO1
KCIC - Chico Municipal, California, USA
Distance from station: WNW 124mi, 199km
Updated: Sun, 25-Jul-2021 5:15am PDT
Overcast
Overcast
 Wind from calm
Wind: Calm
Temperature: 75°F , 24°C
Dew Point: 45°F , 7°C
Humidity: 34%
Barometer: 29.89 inHg , 1012.2 hPa
Clouds: Overcast
Visibility: 10 miles , 16 km
Cloud details: Overcast 8000 ft
2021/07/25 12:15 KCIC 251215Z AUTO 00000KT 10SM OVC080 24/07 A2989 RMK AO1
 
KMCE - Merced, California, USA
Distance from station: SSW 128mi, 207km
Updated: Sun, 25-Jul-2021 4:53am PDT
Clear
Clear
 Wind from W
Wind: W 7 mph , 11 km/h
Temperature: 70°F , 21°C
Dew Point: 54°F , 12°C
Humidity: 57%
Barometer: 29.86 inHg , 1011.2 hPa
Clouds: Clear
Visibility: 10 miles , 16 km
2021/07/25 11:53 KMCE 251153Z AUTO 27006KT 10SM CLR 21/12 A2986 RMK AO2 SLP110 T02060122 10250 20206 53002
KVCB - Vacaville, California, USA
Distance from station: WSW 128mi, 207km
Updated: Sun, 25-Jul-2021 4:53am PDT
Clear
Clear
 Wind from WSW
Wind: WSW 10 mph , 17 km/h
Temperature: 63°F , 17°C
Dew Point: 50°F , 10°C
Humidity: 64%
Barometer: 29.87 inHg , 1011.5 hPa
Clouds: Clear
Visibility: 10 miles , 16 km
2021/07/25 11:53 KVCB 251153Z AUTO 24009KT 10SM CLR 17/10 A2987 RMK AO2 SLP113 T01720100 10256 20172 53006
 
KSUU - Travis Afb/Fairf, California, USA
Distance from station: WSW 130mi, 209km
Updated: Sun, 25-Jul-2021 4:56am PDT
Clear
Clear
 Wind from SW
Wind: SW 29 mph , 46 km/h, Gust: 36 mph , 57 km/h
Temperature: 57°F , 14°C
Dew Point: 52°F , 11°C
Humidity: 82%
Barometer: 29.86 inHg , 1011.2 hPa
Clouds: Clear
Visibility: 10 miles , 16 km
2021/07/25 11:56 KSUU 251156Z AUTO 23025G31KT 10SM CLR 14/11 A2986 RMK AO2 PK WND 23033/23 SLP118 T01400106 10174 20140 53006 $
KBIH - Bishop, California, USA
Distance from station: SE 137mi, 221km
Updated: Sun, 25-Jul-2021 4:56am PDT
Clear
Clear
 Wind from NNW
Wind: NNW 6 mph , 9 km/h
Temperature: 72°F , 22°C
Dew Point: 50°F , 10°C
Humidity: 47%
Barometer: 30.04 inHg , 1017.3 hPa
Clouds: Clear
Visibility: 10 miles , 16 km
2021/07/25 11:56 KBIH 251156Z AUTO 33005KT 10SM CLR 22/10 A3004 RMK AO2 SLP109 T02170100 10272 20211 50000
 
KMAE - Madera, California, USA
Distance from station: S 144mi, 231km
Updated: Sun, 25-Jul-2021 4:53am PDT
Clear
Clear
 Wind from NW
Wind: NW 6 mph , 9 km/h
Temperature: 70°F , 21°C
Dew Point: 52°F , 11°C
Humidity: 53%
Barometer: 29.87 inHg , 1011.5 hPa
Clouds: Clear
Visibility: 10 miles , 16 km
2021/07/25 11:53 KMAE 251153Z AUTO 32005KT 10SM CLR 21/11 A2987 RMK AO2 SLP111 T02060111 10261 20200 52001
KCCR - Concord, California, USA
Distance from station: WSW 145mi, 233km
Updated: Sun, 25-Jul-2021 4:53am PDT
Clear
Clear
 Wind from WNW
Wind: WNW 7 mph , 11 km/h
Temperature: 59°F , 15°C
Dew Point: 52°F , 11°C
Humidity: 77%
Barometer: 29.93 inHg , 1013.5 hPa
Clouds: Clear
Visibility: 10 miles , 16 km
2021/07/25 11:53 KCCR 251153Z AUTO 29006KT 10SM CLR 15/11 A2993 RMK AO2 SLP120 T01500106 10217 20144 51005
 
KLVK - Livermore, California, USA
Distance from station: SW 146mi, 236km
Updated: Sun, 25-Jul-2021 4:53am PDT
Clear
Clear
 Wind from WNW
Wind: WNW 6 mph , 9 km/h
Temperature: 59°F , 15°C
Dew Point: 52°F , 11°C
Humidity: 77%
Barometer: 29.94 inHg , 1013.9 hPa
Clouds: Clear
Visibility: 10 miles , 16 km
2021/07/25 11:53 KLVK 251153Z AUTO 29005KT 10SM CLR 15/11 A2994 RMK AO2 SLP132 T01500111 10200 20150 53005
KAPC - Napa, California, USA
Distance from station: WSW 150mi, 241km
Updated: Sun, 25-Jul-2021 4:54am PDT
Overcast
Overcast
 Wind from W
Wind: W 8 mph , 13 km/h
Temperature: 55°F , 13°C
Dew Point: 52°F , 11°C
Humidity: 88%
Barometer: 29.95 inHg , 1014.2 hPa
Clouds: Overcast
Visibility: 10 miles , 16 km
Cloud details: Overcast 800 ft
2021/07/25 11:54 KAPC 251154Z AUTO 27007KT 10SM OVC008 13/11 A2995 RMK AO2 SLP134 T01280111 10150 20117 53004
 
KRBL - Red Bluff, California, USA
Distance from station: WNW 155mi, 249km
Updated: Sun, 25-Jul-2021 4:54am PDT
Clear
Clear
 Wind from NNW
Wind: NNW 3 mph , 6 km/h
Temperature: 72°F , 22°C
Dew Point: 50°F , 10°C
Humidity: 47%
Barometer: 29.87 inHg , 1011.5 hPa
Clouds: Clear
Visibility: 10 miles , 16 km
2021/07/25 11:54 KRBL 251154Z AUTO 33003KT 10SM CLR 22/10 A2987 RMK AO2 SLP111 T02170100 10250 20217 53005
KFAT - Fresno, California, USA
Distance from station: S 156mi, 251km
Updated: Sun, 25-Jul-2021 4:53am PDT
Mostly cloudy
Mostly cloudy
 Wind from WNW
Wind: WNW 5 mph , 7 km/h
Temperature: 79°F , 26°C
Dew Point: 48°F , 9°C
Humidity: 34%
Barometer: 29.87 inHg , 1011.5 hPa
Clouds: Mostly cloudy
Visibility: 10 miles , 16 km
Cloud details: Mostly cloudy 20000 ft
2021/07/25 11:53 KFAT 251153Z 29004KT 10SM BKN200 26/09 A2987 RMK AO2 SLP110 T02560089 10317 20256 53003 $
 
KTPH - Tonopah, Nevada, USA
Distance from station: ESE 158mi, 254km
Updated: Sun, 25-Jul-2021 4:56am PDT
Clear
Clear
 Wind from N
Wind: N 10 mph , 17 km/h
Temperature: 70°F , 21°C
Dew Point: 54°F , 12°C
Humidity: 57%
Barometer: 30.16 inHg , 1021.3 hPa
Clouds: Clear
Visibility: 10 miles , 16 km
2021/07/25 11:56 KTPH 251156Z AUTO 01009KT 10SM CLR 21/12 A3016 RMK AO2 SLP121 T02060117 10261 20206 55003
KFCH - Fresno Chandler, California, USA
Distance from station: S 161mi, 258km
Updated: Thu, 14-May-2020 3:35am PDT
NOT Current
Few Clouds
Few Clouds
 Wind from NW
Wind: NW 13 mph , 20 km/h
Temperature: 59°F , 15°C
Dew Point: 48°F , 9°C
Humidity: 68%
Barometer: 30.06 inHg , 1017.9 hPa
Clouds: Few Clouds
Visibility: 10 miles , 16 km
Cloud details: Few Clouds 2900 ft
2020/05/14 10:35 KFCH 141035Z AUTO 32011KT 10SM FEW029 15/09 A3006 RMK A01
 
KHWD - Hayward, California, USA
Distance from station: SW 161mi, 259km
Updated: Sun, 25-Jul-2021 4:54am PDT
Overcast
Overcast
 Wind from N
Wind: N 7 mph , 11 km/h
Temperature: 57°F , 14°C
Dew Point: 54°F , 12°C
Humidity: 88%
Barometer: 29.96 inHg , 1014.6 hPa
Clouds: Overcast
Visibility: 10 miles , 16 km
Cloud details: Overcast 900 ft
2021/07/25 11:54 KHWD 251154Z 36006KT 10SM OVC009 14/12 A2996 RMK AO2 SLP152 T01390117 10150 20133 53001
KOAK - Oakland, California, USA
Distance from station: SW 164mi, 264km
Updated: Sun, 25-Jul-2021 5:15am PDT
Overcast
Overcast
 Wind from N
Wind: N 7 mph , 11 km/h
Temperature: 57°F , 14°C
Dew Point: 54°F , 12°C
Humidity: 88%
Barometer: 29.96 inHg , 1014.6 hPa
Clouds: Overcast
Visibility: 10 miles , 16 km
Cloud details: Overcast 1000 ft
2021/07/25 12:15 KOAK 251215Z 36006KT 10SM OVC010 14/12 A2996 RMK AO2 T01440122
 
KWMC - Winnemucca, Nevada, USA
Distance from station: NE 164mi, 264km
Updated: Sun, 25-Jul-2021 4:56am PDT
Clear
Clear
 Wind from ENE
Wind: ENE 12 mph , 19 km/h
Temperature: 75°F , 24°C
Dew Point: 28°F , -2°C
Humidity: 18%
Barometer: 30.06 inHg , 1017.9 hPa
Clouds: Clear
Visibility: 9 miles , 14 km
2021/07/25 11:56 KWMC 251156Z AUTO 06010KT 9SM CLR 24/M02 A3006 RMK AO2 SLP114 T02441017 10289 20244 53002
KDVO - Novato/Gnoss Fld, California, USA
Distance from station: WSW 165mi, 265km
Updated: Sun, 25-Jul-2021 5:15am PDT
Mostly cloudy
Mostly cloudy
 Wind from NW
Wind: NW 3 mph , 6 km/h
Temperature: 50°F , 10°C
Dew Point: 48°F , 9°C
Humidity: 94%
Barometer: 29.96 inHg , 1014.6 hPa
Clouds: Mostly cloudy
Visibility: 10 miles , 16 km
Cloud details: Mostly cloudy 1000 ft
2021/07/25 12:15 KDVO 251215Z AUTO 31003KT 10SM BKN010 10/09 A2996 RMK AO2
 
KO69 - Petaluma, California, USA
Distance from station: WSW 165mi, 265km
Updated: Sun, 25-Jul-2021 5:15am PDT
Mist, Overcast
Mist, Overcast
 Wind from calm
Wind: Calm
Temperature: 52°F , 11°C
Dew Point: 52°F , 11°C
Humidity: 100%
Barometer: 29.97 inHg , 1014.9 hPa
Summary: Mist
Clouds: Overcast
Visibility: 6 miles , 10 km
Cloud details: Overcast 300 ft
2021/07/25 12:15 KO69 251215Z AUTO 00000KT 6SM BR OVC003 11/11 A2997 RMK A01
KRHV - San Jose/Reid, California, USA
Distance from station: SW 165mi, 265km
Updated: Sat, 24-Jul-2021 9:55pm PDT
NOT Current
Clear
Clear
 Wind from WNW
Wind: WNW 6 mph , 9 km/h
Temperature: 66°F , 19°C
Dew Point: 55°F , 13°C
Humidity: 68%
Barometer: 29.96 inHg , 1014.6 hPa
Clouds: Clear
Visibility: 10 miles , 16 km
2021/07/25 04:55 KRHV 250455Z 30005KT 10SM SKC 19/13 A2996 RMK LAST
 
KSJC - San Jose, California, USA
Distance from station: SW 166mi, 267km
Updated: Sun, 25-Jul-2021 5:31am PDT
Partly cloudy
Partly cloudy
 Wind from S
Wind: S 5 mph , 7 km/h
Temperature: 57°F , 14°C
Dew Point: 52°F , 11°C
Humidity: 82%
Barometer: 29.96 inHg , 1014.6 hPa
Clouds: Partly cloudy
Visibility: 10 miles , 16 km
Cloud details: Few Clouds 600 ft
Few Clouds 7000 ft
Partly cloudy 18000 ft
2021/07/25 12:31 KSJC 251231Z 18004KT 10SM FEW006 FEW070 SCT180 14/11 A2996 RMK AO2 T01440106
KE16 - San Martin, California, USA
Distance from station: SW 169mi, 273km
Updated: Sun, 25-Jul-2021 5:15am PDT
Overcast
Overcast
 Wind from SE
Wind: SE 10 mph , 17 km/h
Temperature: 55°F , 13°C
Dew Point: 54°F , 12°C
Humidity: 94%
Barometer: 29.99 inHg , 1015.6 hPa
Clouds: Overcast
Visibility: 10 miles , 16 km
Cloud details: Overcast 400 ft
2021/07/25 12:15 KE16 251215Z AUTO 13009KT 10SM OVC004 13/12 A2999 RMK AO2 PWINO PNO
 
KPAO - Palo Alto, California, USA
Distance from station: SW 169mi, 273km
Updated: Sat, 24-Jul-2021 8:47pm PDT
NOT Current
Clear
Clear
 Wind from NNW
Wind: NNW 10 mph , 17 km/h
Temperature: 63°F , 17°C
Dew Point: 57°F , 14°C
Humidity: 83%
Barometer: 29.94 inHg , 1013.9 hPa
Clouds: Clear
Visibility: 10 miles , 16 km
2021/07/25 03:47 KPAO 250347Z 34009KT 10SM SKC 17/14 A2994 RMK LAST
KNUQ - Moffett Nas/Mtn, California, USA
Distance from station: SW 170mi, 273km
Updated: Sun, 25-Jul-2021 5:15am PDT
Overcast
Overcast
 Wind from N
Wind: N 6 mph , 9 km/h
Temperature: 59°F , 15°C
Dew Point: 55°F , 13°C
Humidity: 88%
Barometer: 29.96 inHg , 1014.6 hPa
Clouds: Overcast
Visibility: 10 miles , 16 km
Cloud details: Overcast 1000 ft
2021/07/25 12:15 KNUQ 251215Z AUTO 35005KT 10SM OVC010 15/13 A2996 RMK AO2
 
KRDD - Redding, California, USA
Distance from station: NW 171mi, 275km
Updated: Sun, 25-Jul-2021 4:53am PDT
Smoke, Clear
Smoke, Clear
 Wind from calm
Wind: Calm
Temperature: 70°F , 21°C
Dew Point: 48°F , 9°C
Humidity: 46%
Barometer: 29.87 inHg , 1011.5 hPa
Summary: Smoke
Clouds: Clear
Visibility: 10 miles , 16 km
2021/07/25 11:53 KRDD 251153Z AUTO 00000KT 10SM FU CLR 21/09 A2987 RMK AO2 SLP107 T02110094 10250 20206 50001
KSTS - Santa Rosa, California, USA
Distance from station: WSW 171mi, 275km
Updated: Sun, 25-Jul-2021 4:53am PDT
Overcast
Overcast
 Wind from S
Wind: S 5 mph , 7 km/h
Temperature: 50°F , 10°C
Wind Chill: 48°F , 9°C
Dew Point: 50°F , 10°C
Humidity: 100%
Barometer: 29.96 inHg , 1014.6 hPa
Clouds: Overcast
Visibility: 9 miles , 14 km
Cloud details: Overcast 300 ft
2021/07/25 11:53 KSTS 251153Z AUTO 19004KT 9SM OVC003 10/10 A2996 RMK AO2 SLP140 T01000100 10111 20100 55000
 
KSQL - San Carlos Airpo, California, USA
Distance from station: SW 173mi, 278km
Updated: Sun, 25-Jul-2021 5:35am PDT
Overcast
Overcast
 Wind from calm
Wind: Calm
Temperature: 59°F , 15°C
Dew Point: 57°F , 14°C
Humidity: 94%
Barometer: 29.97 inHg , 1014.9 hPa
Clouds: Overcast
Visibility: 10 miles , 16 km
Cloud details: Overcast 1100 ft
2021/07/25 12:35 KSQL 251235Z AUTO 00000KT 10SM OVC011 15/14 A2997 RMK AO2
KCVH - Hollister Muni, California, USA
Distance from station: SSW 174mi, 280km
Updated: Sun, 25-Jul-2021 5:35am PDT
Overcast
Overcast
 Wind from SW
Wind: SW 5 mph , 7 km/h
Temperature: 55°F , 13°C
Dew Point: 54°F , 12°C
Humidity: 94%
Barometer: 29.99 inHg , 1015.6 hPa
Clouds: Overcast
Visibility: 10 miles , 16 km
Cloud details: Overcast 500 ft
2021/07/25 12:35 KCVH 251235Z AUTO 22004KT 10SM OVC005 13/12 A2999 RMK A01
 
KSFO - San Francisco, California, USA
Distance from station: SW 174mi, 280km
Updated: Sun, 25-Jul-2021 4:56am PDT
Mostly cloudy
Mostly cloudy
 Wind from WNW
Wind: WNW 7 mph , 11 km/h
Temperature: 57°F , 14°C
Dew Point: 52°F , 11°C
Humidity: 82%
Barometer: 29.95 inHg , 1014.2 hPa
Clouds: Mostly cloudy
Visibility: 10 miles , 16 km
Cloud details: Mostly cloudy 1100 ft
2021/07/25 11:56 KSFO 251156Z 29006KT 10SM BKN011 14/11 A2995 RMK A02 SLPT01390111 10139 20133 51002
KAAT - Alturas, California, USA
Distance from station: NNW 175mi, 281km
Updated: Sun, 25-Jul-2021 3:55am PDT
NOT Current
Haze, Partly cloudy
Haze, Partly cloudy
 Wind from SE
Wind: SE 3 mph , 6 km/h
Temperature: 54°F , 12°C
Dew Point: 34°F , 1°C
Humidity: 47%
Barometer: 30.12 inHg , 1020 hPa
Summary: Haze
Clouds: Partly cloudy
Visibility: 6 miles , 10 km
Cloud details: Partly cloudy 8000 ft
2021/07/25 10:55 KAAT 251055Z AUTO 14003KT 6SM HZ SCT080 12/01 A3012 RMK AO2 SLP150 T01220011
 
KBAM - Battle Mtn (vor), Nevada, USA
Distance from station: NE 182mi, 294km
Updated: Sun, 25-Jul-2021 5:35am PDT
Clear
Clear
 Wind from NNW
Wind: NNW 9 mph , 15 km/h
Temperature: 68°F , 20°C
Dew Point: 28°F , -2°C
Humidity: 23%
Barometer: 30.10 inHg , 1019.3 hPa
Clouds: Clear
Visibility: 10 miles , 16 km
2021/07/25 12:35 KBAM 251235Z AUTO 34008KT 10SM CLR 20/M02 A3010 RMK AO1
KHAF - Half Moon Bay, California, USA
Distance from station: SW 184mi, 296km
Updated: Fri, 09-Jul-2021 7:35am PDT
NOT Current
Light rain, Clear
Light rain, Clear
 
Temperature: 55°F , 13°C
Dew Point: 54°F , 12°C
Humidity: 94%
Barometer: 29.91 inHg , 1012.9 hPa
Summary: Light rain
Clouds: Clear
Visibility: 4 miles , 6 km
2021/07/09 14:35 KHAF 091435Z AUTO 4SM -RA CLR 13/12 A2991 RMK AO2
 
KWVI - Watsonville, California, USA
Distance from station: SW 184mi, 296km
Updated: Sun, 25-Jul-2021 4:53am PDT
Overcast
Overcast
 Wind from calm
Wind: Calm
Temperature: 55°F , 13°C
Dew Point: 54°F , 12°C
Humidity: 94%
Barometer: 29.99 inHg , 1015.6 hPa
Clouds: Overcast
Visibility: 9 miles , 14 km
Cloud details: Overcast 400 ft
2021/07/25 11:53 KWVI 251153Z AUTO 00000KT 9SM OVC004 13/12 A2999 RMK AO2 SLP154 T01330122 10139 20128 53000
KUKI - Ukiah, California, USA
Distance from station: W 187mi, 300km
Updated: Sun, 25-Jul-2021 4:56am PDT
Clear
Clear
 Wind from SSE
Wind: SSE 3 mph , 6 km/h
Temperature: 61°F , 16°C
Dew Point: 48°F , 9°C
Humidity: 63%
Barometer: 29.92 inHg , 1013.2 hPa
Clouds: Clear
Visibility: 10 miles , 16 km
2021/07/25 11:56 KUKI 251156Z AUTO 15003KT 10SM CLR 16/09 A2992 RMK AO2 SLP123 T01610089 10250 20161 51001
 
KHJO - Hanford, California, USA
Distance from station: S 188mi, 303km
Updated: Sun, 25-Jul-2021 4:53am PDT
Clear
Clear
 Wind from W
Wind: W 3 mph , 6 km/h
Temperature: 72°F , 22°C
Dew Point: 55°F , 13°C
Humidity: 57%
Barometer: 29.87 inHg , 1011.5 hPa
Clouds: Clear
Visibility: 10 miles , 16 km
2021/07/25 11:53 KHJO 251153Z AUTO 28003KT 10SM CLR 22/13 A2987 RMK AO2 SLP113 T02220133 10311 20200 51001
KNLC - Lemoore Nas/Reev, California, USA
Distance from station: S 188mi, 303km
Updated: Sun, 25-Jul-2021 4:56am PDT
Clear
Clear
 Wind from W
Wind: W 9 mph , 15 km/h
Temperature: 72°F , 22°C
Dew Point: 45°F , 7°C
Humidity: 38%
Barometer: 29.87 inHg , 1011.5 hPa
Clouds: Clear
Visibility: 10 miles , 16 km
2021/07/25 11:56 KNLC 251156Z AUTO 28008KT 10SM CLR 22/07 A2987 RMK AO2 SLP111 T02170067 10272 20211 53000
 
KVIS - Visalia Muni, California, USA
Distance from station: S 189mi, 304km
Updated: Sun, 25-Jul-2021 4:56am PDT
Clear
Clear
 Wind from SSE
Wind: SSE 5 mph , 7 km/h
Temperature: 70°F , 21°C
Dew Point: 61°F , 16°C
Humidity: 73%
Barometer: 29.87 inHg , 1011.5 hPa
Clouds: Clear
Visibility: 10 miles , 16 km
2021/07/25 11:56 KVIS 251156Z AUTO 16004KT 10SM CLR 21/16 A2987 RMK AO2 SLP118 T02060156 10289 20206 53001
KSNS - Salinas, California, USA
Distance from station: SSW 193mi, 311km
Updated: Sun, 25-Jul-2021 5:00am PDT
Overcast
Overcast
 Wind from WNW
Wind: WNW 3 mph , 6 km/h
Temperature: 55°F , 13°C
Dew Point: 54°F , 12°C
Humidity: 94%
Barometer: 29.98 inHg , 1015.2 hPa
Clouds: Overcast
Visibility: 10 miles , 16 km
Cloud details: Overcast 500 ft
2021/07/25 12:00 KSNS 251200Z 29003KT 10SM OVC005 13/12 A2998 RMK AO2 T01330117
 
K05U - Eureka, Nevada, USA
Distance from station: ENE 203mi, 326km
Updated: Sun, 25-Jul-2021 5:15am PDT
Clear
Clear
 Wind from calm
Wind: Calm
Temperature: 59°F , 15°C
Dew Point: 37°F , 3°C
Humidity: 45%
Barometer: 30.23 inHg , 1023.7 hPa
Clouds: Clear
Visibility: 10 miles , 16 km
2021/07/25 12:15 K05U 251215Z AUTO 00000KT 10SM CLR 15/03 A3023 RMK A01
KP68 - Eureka, Nevada, USA
Distance from station: ENE 203mi, 326km
Updated: Sun, 25-Jul-2021 4:53am PDT

 Wind from SSW
Wind: SSW 6 mph , 9 km/h
Temperature: 55°F , 13°C
Dew Point: 41°F , 5°C
Humidity: 59%
Barometer: 30.20 inHg , 1022.7 hPa
2021/07/25 11:53 KP68 251153Z AUTO 20005KT 13/05 A3020 RMK AO1 SLP134 T01330050 10228 20133 53002
 
KMRY - Monterey, California, USA
Distance from station: SW 206mi, 331km
Updated: Sun, 25-Jul-2021 4:54am PDT
Mist, Overcast
Mist, Overcast
 Wind from calm
Wind: Calm
Temperature: 57°F , 14°C
Dew Point: 54°F , 12°C
Humidity: 88%
Barometer: 29.99 inHg , 1015.6 hPa
Summary: Mist
Clouds: Overcast
Visibility: 4 miles , 6 km
Cloud details: Overcast 400 ft
2021/07/25 11:54 KMRY 251154Z AUTO 00000KT 4SM BR OVC004 14/12 A2999 RMK AO2 SLP165 T01390117 10144 20139 58000
KO54 - Weaverville, California, USA
Distance from station: NW 207mi, 332km
Updated: Wed, 12-Aug-2020 11:15am PDT
NOT Current
Clear
Clear
 Wind from S
Wind: S 3 mph , 6 km/h
Temperature: 77°F , 25°C
Dew Point: 41°F , 5°C
Humidity: 28%
Barometer: 30.01 inHg , 1016.3 hPa
Clouds: Clear
Visibility: 10 miles , 16 km
2020/08/12 18:15 KO54 121815Z AUTO 17003KT 10SM CLR 25/05 A3001 RMK AO1
 
KO86 - Trinity Center, California, USA
Distance from station: NW 207mi, 333km
Updated: Fri, 25-Sep-2020 1:50am PDT
NOT Current
Mostly cloudy
Mostly cloudy
 Wind from W
Wind: W 5 mph , 7 km/h
Temperature: 50°F , 10°C
Wind Chill: 48°F , 9°C
Dew Point: 41°F , 5°C
Humidity: 71%
Barometer: 30.06 inHg , 1017.9 hPa
Clouds: Mostly cloudy
Visibility: 10 miles , 16 km
Cloud details: Mostly cloudy 4000 ft
2020/09/25 08:50 KO86 250850Z AUTO 27004KT 10SM BKN040 10/05 A3006 RMK AO1
KMHS - Mount Shasta, California, USA
Distance from station: NW 209mi, 336km
Updated: Sun, 25-Jul-2021 4:56am PDT
Clear
Clear
 Wind from calm
Wind: Calm
Temperature: 59°F , 15°C
Dew Point: 43°F , 6°C
Humidity: 55%
Barometer: 30.08 inHg , 1018.6 hPa
Clouds: Clear
Visibility: 9 miles , 14 km
2021/07/25 11:56 KMHS 251156Z AUTO 00000KT 9SM CLR 15/06 A3008 RMK AO2 SLP167 T01500056 10206 20150 50003
 
KPTV - Porterville, California, USA
Distance from station: S 212mi, 341km
Updated: Sun, 25-Jul-2021 4:56am PDT
Clear
Clear
 Wind from SE
Wind: SE 6 mph , 9 km/h
Temperature: 72°F , 22°C
Dew Point: 45°F , 7°C
Humidity: 38%
Barometer: 29.89 inHg , 1012.2 hPa
Clouds: Clear
Visibility: 10 miles , 16 km
2021/07/25 11:56 KPTV 251156Z AUTO 14005KT 10SM CLR 22/07 A2989 RMK AO2 SLP117 T02170072 10278 20217 53001
KLKV - Lakeview, Oregon, USA
Distance from station: N 219mi, 353km
Updated: Sun, 25-Jul-2021 4:53am PDT
Clear
Clear
 Wind from calm
Wind: Calm
Temperature: 55°F , 13°C
Dew Point: 34°F , 1°C
Humidity: 44%
Barometer: 30.14 inHg , 1020.7 hPa
Clouds: Clear
Visibility: 10 miles , 16 km
2021/07/25 11:53 KLKV 251153Z AUTO 00000KT 10SM CLR 13/01 A3014 RMK AO2 SLP155 T01330006 10222 20128 51001
 
KSIY - Montague/Siskiyo, California, USA
Distance from station: NW 237mi, 382km
Updated: Sun, 25-Jul-2021 4:53am PDT
Clear
Clear
 Wind from NE
Wind: NE 5 mph , 7 km/h
Temperature: 68°F , 20°C
Dew Point: 45°F , 7°C
Humidity: 43%
Barometer: 30.05 inHg , 1017.6 hPa
Clouds: Clear
Visibility: 10 miles , 16 km
2021/07/25 11:53 KSIY 251153Z AUTO 05004KT 10SM CLR 20/07 A3005 RMK AO2 SLP154 T02000067 10267 20194 51004
KPRB - Paso Robles, California, USA
Distance from station: SSW 238mi, 383km
Updated: Sun, 25-Jul-2021 4:53am PDT
Clear
Clear
 Wind from calm
Wind: Calm
Temperature: 57°F , 14°C
Dew Point: 48°F , 9°C
Humidity: 72%
Barometer: 29.96 inHg , 1014.6 hPa
Clouds: Clear
Visibility: 10 miles , 16 km
2021/07/25 11:53 KPRB 251153Z AUTO 00000KT 10SM CLR 14/09 A2996 RMK AO2 SLP138 T01440094 10206 20144 58000
 
KLMT - Klamath Falls, Oregon, USA
Distance from station: NNW 239mi, 385km
Updated: Sun, 25-Jul-2021 4:53am PDT
Smoke, Clear
Smoke, Clear
 Wind from calm
Wind: Calm
Temperature: 52°F , 11°C
Dew Point: 46°F , 8°C
Humidity: 82%
Barometer: 30.11 inHg , 1019.6 hPa
Summary: Smoke
Clouds: Clear
Visibility: 8 miles , 13 km
2021/07/25 11:53 KLMT 251153Z AUTO 00000KT 8SM FU CLR 11/08 A3011 RMK AO2 SLP151 T01110078 10217 20106 56001
KEKO - Elko, Nevada, USA
Distance from station: ENE 242mi, 390km
Updated: Sun, 25-Jul-2021 4:56am PDT
Clear
Clear
 Wind from calm
Wind: Calm
Temperature: 61°F , 16°C
Dew Point: 28°F , -2°C
Humidity: 29%
Barometer: 30.15 inHg , 1021 hPa
Clouds: Clear
Visibility: 8 miles , 13 km
2021/07/25 11:56 KEKO 251156Z AUTO 00000KT 8SM CLR 16/M02 A3015 RMK AO2 SLP146 T01561017 10250 20128 53003
 
KBFL - Bakersfield, California, USA
Distance from station: S 252mi, 405km
Updated: Sun, 25-Jul-2021 4:54am PDT
Clear
Clear
 Wind from W
Wind: W 3 mph , 6 km/h
Temperature: 77°F , 25°C
Dew Point: 36°F , 2°C
Humidity: 22%
Barometer: 29.89 inHg , 1012.2 hPa
Clouds: Clear
Visibility: 9 miles , 14 km
2021/07/25 11:54 KBFL 251154Z AUTO 28003KT 9SM CLR 25/02 A2989 RMK AO2 SLP112 T02500017 10306 20250 53001
KFOT - Fortuna, California, USA
Distance from station: WNW 256mi, 413km
Updated: Sun, 25-Jul-2021 5:15am PDT
Overcast
Overcast
 Wind from calm
Wind: Calm
Temperature: 54°F , 12°C
Dew Point: 52°F , 11°C
Humidity: 94%
Barometer: 29.96 inHg , 1014.6 hPa
Clouds: Overcast
Visibility: 10 miles , 16 km
Cloud details: Overcast 300 ft
2021/07/25 12:15 KFOT 251215Z AUTO 00000KT 10SM OVC003 12/11 A2996 RMK AO1
 
KNID - China Lake (naf), California, USA
Distance from station: SSE 259mi, 417km
Updated: Sun, 25-Jul-2021 4:56am PDT
Clear
Clear
 Wind from SSE
Wind: SSE 3 mph , 6 km/h
Temperature: 82°F , 28°C
Dew Point: 37°F , 3°C
Humidity: 20%
Barometer: 29.92 inHg , 1013.2 hPa
Clouds: Clear
Visibility: 10 miles , 16 km
2021/07/25 11:56 KNID 251156Z AUTO 16003KT 10SM CLR 28/03 A2992 RMK AO2 SLP102 T02780033 10322 20278 53006 $
KDRA - Desert R/Mercury, Nevada, USA
Distance from station: SE 262mi, 421km
Updated: Sun, 25-Jul-2021 4:53am PDT
Clear
Clear
 Wind from ESE
Wind: ESE 9 mph , 15 km/h
Temperature: 77°F , 25°C
Dew Point: 63°F , 17°C
Humidity: 61%
Barometer: 30.00 inHg , 1015.9 hPa
Clouds: Clear
Visibility: 10 miles , 16 km
2021/07/25 11:53 KDRA 251153Z AUTO 12008KT 10SM CLR 25/17 A3000 RMK AO2 SLP102 T02500167 10294 20244 52005
 
KELY - Ely, Nevada, USA
Distance from station: E 262mi, 421km
Updated: Sun, 25-Jul-2021 4:53am PDT
Clear
Clear
 Wind from S
Wind: S 9 mph , 15 km/h
Temperature: 57°F , 14°C
Dew Point: 48°F , 9°C
Humidity: 72%
Barometer: 30.24 inHg , 1024 hPa
Clouds: Clear
Visibility: 10 miles , 16 km
2021/07/25 11:53 KELY 251153Z AUTO 18008KT 10SM CLR 14/09 A3024 RMK AO2 SLP129 T01390089 10239 20133 53002
KREO - Rome, Oregon, USA
Distance from station: NNE 263mi, 424km
Updated: Sun, 25-Jul-2021 4:52am PDT

 Wind from SSE
Wind: SSE 5 mph , 7 km/h
Temperature: 57°F , 14°C
Dew Point: 28°F , -2°C
Humidity: 33%
Barometer: 30.08 inHg , 1018.6 hPa
2021/07/25 11:52 KREO 251152Z AUTO 16004KT 14/M02 A3008 RMK AO1 SLP141 T01391022 10217 20133 53004
 
KACV - Arcata/Eureka, California, USA
Distance from station: WNW 268mi, 431km
Updated: Sun, 25-Jul-2021 4:53am PDT
Overcast
Overcast
 Wind from varies
Wind: varies 3 mph , 6 km/h
Temperature: 54°F , 12°C
Dew Point: 52°F , 11°C
Humidity: 94%
Barometer: 29.96 inHg , 1014.6 hPa
Clouds: Overcast
Visibility: 9 miles , 14 km
Cloud details: Overcast 300 ft
2021/07/25 11:53 KACV 251153Z AUTO VRB03KT 9SM OVC003 12/11 A2996 RMK AO2 SLP149 T01220111 10128 20122 56002
KSBP - San Luis Obispo, California, USA
Distance from station: S 268mi, 431km
Updated: Sun, 25-Jul-2021 4:56am PDT
Overcast
Overcast
 Wind from calm
Wind: Calm
Temperature: 57°F , 14°C
Dew Point: 54°F , 12°C
Humidity: 88%
Barometer: 29.97 inHg , 1014.9 hPa
Clouds: Overcast
Visibility: 10 miles , 16 km
Cloud details: Overcast 600 ft
2021/07/25 11:56 KSBP 251156Z AUTO 00000KT 10SM OVC006 14/12 A2997 RMK AO2 SLP146 T01390122 10144 20139 58004
 
KINS - Indian Springs, Nevada, USA
Distance from station: SE 279mi, 449km
Updated: Sun, 25-Jul-2021 4:56am PDT
Clear
Clear
 Wind from W
Wind: W 6 mph , 9 km/h
Temperature: 72°F , 22°C
Dew Point: 68°F , 20°C
Humidity: 88%
Barometer: 30.00 inHg , 1015.9 hPa
Clouds: Clear
Visibility: 10 miles , 16 km
2021/07/25 11:56 KINS 251156Z AUTO 26005KT 10SM CLR 22/20 A3000 RMK AO2 SLP108 70054 T02240201 10259 20221 53001 $
KTSP - Tehachapi, California, USA
Distance from station: SSE 279mi, 449km
Updated: Sun, 25-Jul-2021 5:35am PDT
Clear
Clear
 Wind from W
Wind: W 7 mph , 11 km/h
Temperature: 68°F , 20°C
Dew Point: 37°F , 3°C
Humidity: 33%
Barometer: 30.10 inHg , 1019.3 hPa
Clouds: Clear
Visibility: 10 miles , 16 km
2021/07/25 12:35 KTSP 251235Z AUTO 28006KT 10SM CLR 20/03 A3010 RMK AO2
 
KMFR - Medford, Oregon, USA
Distance from station: NW 284mi, 457km
Updated: Sun, 25-Jul-2021 4:53am PDT
Clear
Clear
 Wind from calm
Wind: Calm
Temperature: 68°F , 20°C
Dew Point: 48°F , 9°C
Humidity: 49%
Barometer: 30.01 inHg , 1016.3 hPa
Clouds: Clear
Visibility: 10 miles , 16 km
2021/07/25 11:53 KMFR 251153Z AUTO 00000KT 10SM CLR 20/09 A3001 RMK AO2 SLP149 T02000094 10272 20189 51005
KMHV - Mojave, California, USA
Distance from station: SSE 288mi, 463km
Updated: Sun, 25-Jul-2021 5:00am PDT
Clear
Clear
 Wind from NW
Wind: NW 6 mph , 9 km/h
Temperature: 82°F , 28°C
Dew Point: 37°F , 3°C
Humidity: 20%
Barometer: 29.96 inHg , 1014.6 hPa
Clouds: Clear
Visibility: 10 miles , 16 km
2021/07/25 12:00 KMHV 251200Z AUTO 31005KT 10SM CLR 28/03 A2996 RMK A01
 
KSMX - Santa Maria, California, USA
Distance from station: S 289mi, 465km
Updated: Sun, 25-Jul-2021 5:18am PDT
Mist, Overcast
Mist, Overcast
 Wind from calm
Wind: Calm
Temperature: 55°F , 13°C
Dew Point: 54°F , 12°C
Humidity: 94%
Barometer: 29.98 inHg , 1015.2 hPa
Summary: Mist
Clouds: Overcast
Visibility: 3 miles , 5 km
Cloud details: Overcast 200 ft
2021/07/25 12:18 KSMX 251218Z AUTO 00000KT 3SM R12/5000VP6000FT BR OVC002 13/12 A2998 RMK AO2 T01280117
K9L2 - Edwards N-Aux, California, USA
Distance from station: SSE 299mi, 482km
Updated: Sun, 25-Jul-2021 4:58am PDT
Partly cloudy
Partly cloudy
 Wind from SSW
Wind: SSW 13 mph , 20 km/h
Temperature: 77°F , 25°C
Dew Point: 41°F , 5°C
Humidity: 28%
Barometer: 29.93 inHg , 1013.5 hPa
Clouds: Partly cloudy
Visibility: 10 miles , 16 km
Cloud details: Partly cloudy 19000 ft
2021/07/25 11:58 K9L2 251158Z AUTO 20011KT 10SM SCT190 25/05 A2993 RMK AO2 SLP105 T02510045 10277 20250 50000 $
Honor Flight NV - Honoring all of our Veterans CoCoRaHS (Community Collaborative Rain, Hail and Snow Network) Station Number: NV-DG-2 Live Lightning Map - USA Reno Skywarn Spotter ID: DO21 AlertID Southwestern Weather Network Carson Valley Community Food Closet - providing for the needs of our community



Do you have a Teacher in the family or are a teacher yourself?
Check out this new website for the Teacher Community.
(Click on the logo below)
Teacher 
		  Times Two Designs - providing  teacher tees & accessories for the teaching community

(Click on the Flag Counter logo below for details in new browser tab)
Flag Counter